createdAt,value
2019-03-18T00:02:12.063Z,67.58
2019-03-18T00:04:42.936Z,68.15
2019-03-18T00:07:13.693Z,75.32
2019-03-18T00:09:44.546Z,83.82
2019-03-18T00:12:15.282Z,86.08
2019-03-18T00:14:45.935Z,77.10
2019-03-18T00:17:16.808Z,82.37
2019-03-18T00:19:47.564Z,94.77
2019-03-18T00:22:18.316Z,86.80
2019-03-18T00:24:48.969Z,96.35
2019-03-18T00:27:19.825Z,91.72
2019-03-18T00:29:50.462Z,85.47
2019-03-18T00:32:21.211Z,91.82
2019-03-18T00:34:51.880Z,80.35
2019-03-18T00:37:22.751Z,86.50
2019-03-18T00:39:53.494Z,88.72
2019-03-18T00:42:24.349Z,89.45
2019-03-18T00:44:55.080Z,88.45
2019-03-18T00:47:26.985Z,80.55
2019-03-18T00:49:57.716Z,74.82
2019-03-18T00:52:28.586Z,90.53
2019-03-18T00:54:59.243Z,90.65
2019-03-18T00:57:30.097Z,89.22
2019-03-18T01:00:00.777Z,84.80
2019-03-18T01:02:31.607Z,85.35
2019-03-18T01:05:02.257Z,87.60
2019-03-18T01:07:33.098Z,86.75
2019-03-18T01:10:04.667Z,84.13
2019-03-18T01:12:35.234Z,83.05
2019-03-18T01:15:08.037Z,86.15
2019-03-18T01:17:38.463Z,84.50
2019-03-18T01:20:13.225Z,80.05
2019-03-18T01:22:43.654Z,89.10
2019-03-18T01:25:14.201Z,98.70
2019-03-18T01:27:45.079Z,73.60
2019-03-18T01:30:15.707Z,79.87
2019-03-18T01:32:46.480Z,82.67
2019-03-18T01:35:17.130Z,79.90
2019-03-18T01:37:47.895Z,78.35
2019-03-18T01:40:18.742Z,84.95
2019-03-18T01:42:49.476Z,82.92
2019-03-18T01:45:20.027Z,96.57
2019-03-18T01:47:51.924Z,86.35
2019-03-18T01:50:22.660Z,78.57
2019-03-18T01:52:53.531Z,84.20
2019-03-18T01:55:24.288Z,90.67
2019-03-18T01:57:54.940Z,78.45
2019-03-18T02:00:25.793Z,78.00
2019-03-18T02:02:56.548Z,84.83
2019-03-18T02:05:27.300Z,83.07
2019-03-18T02:07:58.139Z,92.85
2019-03-18T02:10:28.895Z,97.10
2019-03-18T02:12:59.667Z,108.00
2019-03-18T02:15:30.303Z,113.75
2019-03-18T02:18:01.157Z,111.20
2019-03-18T02:20:31.932Z,99.70
2019-03-18T02:23:02.683Z,97.22
2019-03-18T02:25:35.978Z,95.70
2019-03-18T02:28:06.644Z,100.85
2019-03-18T02:30:37.383Z,92.05
2019-03-18T02:33:08.233Z,92.67
2019-03-18T02:35:38.888Z,96.55
2019-03-18T02:40:39.494Z,87.37
2019-03-18T02:43:10.137Z,83.03
2019-03-18T02:45:40.999Z,71.57
2019-03-18T02:48:12.756Z,79.80
2019-03-18T02:50:43.639Z,84.10
2019-03-18T02:53:14.374Z,72.45
2019-03-18T02:55:45.084Z,80.97
2019-03-18T02:58:16.022Z,83.00
2019-03-18T03:00:46.729Z,87.97
2019-03-18T03:03:17.503Z,88.67
2019-03-18T03:05:48.400Z,78.92
2019-03-18T03:08:19.221Z,88.58
2019-03-18T03:10:49.954Z,82.92
2019-03-18T03:13:20.622Z,94.52
2019-03-18T03:15:51.389Z,96.47
2019-03-18T03:18:22.229Z,94.83
2019-03-18T03:20:52.990Z,94.17
2019-03-18T03:23:23.636Z,84.30
2019-03-18T03:25:54.838Z,88.40
2019-03-18T03:28:25.262Z,86.22
2019-03-18T03:30:56.009Z,83.10
2019-03-18T03:33:26.653Z,83.70
2019-03-18T03:35:59.051Z,100.42
2019-03-18T03:38:29.675Z,94.42
2019-03-18T03:41:00.450Z,92.62
2019-03-18T03:43:31.304Z,102.47
2019-03-18T03:46:02.162Z,101.55
2019-03-18T03:48:33.003Z,95.05
2019-03-18T03:53:33.499Z,103.95
2019-03-18T03:56:04.154Z,111.17
2019-03-18T03:58:35.008Z,117.80
2019-03-18T04:01:05.847Z,108.70
2019-03-18T04:03:38.632Z,110.20
2019-03-18T04:06:08.703Z,101.58
2019-03-18T04:08:39.446Z,100.58
2019-03-18T04:11:10.315Z,101.60
2019-03-18T04:13:41.065Z,102.58
2019-03-18T04:16:11.718Z,95.22
2019-03-18T04:18:42.570Z,92.88
2019-03-18T04:21:13.325Z,82.95
2019-03-18T04:23:44.086Z,82.57
2019-03-18T04:26:14.818Z,85.92
2019-03-18T04:28:45.571Z,94.92
2019-03-18T04:31:16.340Z,97.33
2019-03-18T04:33:48.529Z,95.12
2019-03-18T04:36:19.260Z,89.97
2019-03-18T04:38:50.133Z,89.97
2019-03-18T04:41:20.769Z,86.70
2019-03-18T04:46:21.270Z,82.17
2019-03-18T04:48:52.125Z,82.25
2019-03-18T04:51:22.986Z,81.72
2019-03-18T04:53:54.229Z,79.50
2019-03-18T04:56:24.885Z,79.17
2019-03-18T04:58:55.737Z,75.65
2019-03-18T05:01:26.509Z,68.95
2019-03-18T05:03:57.263Z,74.75
2019-03-18T05:06:28.120Z,71.42
2019-03-18T05:08:58.974Z,69.58
2019-03-18T05:11:29.729Z,62.90
2019-03-18T05:14:00.381Z,63.28
2019-03-18T05:16:31.235Z,68.50
2019-03-18T05:19:01.869Z,67.32
2019-03-18T05:21:32.643Z,79.60
2019-03-18T05:24:03.380Z,64.37
2019-03-18T05:26:34.256Z,64.75
2019-03-18T05:29:04.884Z,59.83
2019-03-18T05:31:35.640Z,64.90
2019-03-18T05:36:36.049Z,64.27
2019-03-18T05:39:06.879Z,79.62
2019-03-18T05:41:37.754Z,69.30
2019-03-18T05:44:08.505Z,69.65
2019-03-18T05:46:39.259Z,73.50
2019-03-18T05:49:10.115Z,67.25
2019-03-18T05:51:40.958Z,58.90
2019-03-18T05:54:11.829Z,60.45
2019-03-18T05:56:42.477Z,58.60
2019-03-18T05:59:13.336Z,69.47
2019-03-18T06:01:44.090Z,66.87
2019-03-18T06:04:14.843Z,60.40
2019-03-18T06:06:45.696Z,66.92
2019-03-18T06:09:16.555Z,59.38
2019-03-18T06:11:47.310Z,60.58
2019-03-18T06:14:17.850Z,58.25
2019-03-18T06:16:48.702Z,56.15
2019-03-18T06:19:19.468Z,60.08
2019-03-18T06:21:50.220Z,56.08
2019-03-18T06:24:20.878Z,53.90
2019-03-18T06:26:51.798Z,59.30
2019-03-18T06:29:22.688Z,53.78
2019-03-18T06:31:53.319Z,49.58
2019-03-18T06:34:24.199Z,53.05
2019-03-18T06:36:54.949Z,47.25
2019-03-18T06:39:25.583Z,55.65
2019-03-18T06:44:26.188Z,56.33
2019-03-18T06:46:56.839Z,60.55
2019-03-18T06:49:28.718Z,51.08
2019-03-18T06:51:59.573Z,49.75
2019-03-18T06:54:30.428Z,53.80
2019-03-18T06:57:01.166Z,50.43
2019-03-18T06:59:31.834Z,47.08
2019-03-18T07:02:02.679Z,50.17
2019-03-18T07:04:33.444Z,45.23
2019-03-18T07:07:04.198Z,45.08
2019-03-18T07:09:35.055Z,42.58
2019-03-18T07:12:05.894Z,43.73
2019-03-18T07:14:36.667Z,46.60
2019-03-18T07:17:07.322Z,40.30
2019-03-18T07:19:38.176Z,38.45
2019-03-18T07:22:08.913Z,53.23
2019-03-18T07:24:39.679Z,58.02
2019-03-18T07:27:10.537Z,58.17
2019-03-18T07:29:41.275Z,64.42
2019-03-18T07:32:12.046Z,55.25
2019-03-18T07:34:42.699Z,55.78
2019-03-18T07:37:13.550Z,47.55
2019-03-18T07:39:44.305Z,50.48
2019-03-18T07:42:15.061Z,47.58
2019-03-18T07:44:45.711Z,53.40
2019-03-18T07:47:16.470Z,54.13
2019-03-18T07:49:48.348Z,47.17
2019-03-18T07:52:21.797Z,43.45
2019-03-18T07:54:51.283Z,41.88
2019-03-18T07:57:21.963Z,37.48
2019-03-18T07:59:52.802Z,37.53
2019-03-18T08:02:23.649Z,36.33
2019-03-18T08:04:54.399Z,31.87
2019-03-18T08:07:25.054Z,38.02
2019-03-18T08:09:55.909Z,30.85
2019-03-18T08:12:26.662Z,34.27
2019-03-18T08:14:57.415Z,49.88
2019-03-18T08:17:28.254Z,33.23
2019-03-18T08:19:59.132Z,33.30
2019-03-18T08:22:29.865Z,34.63
2019-03-18T08:25:00.515Z,37.08
2019-03-18T08:27:31.391Z,32.85
2019-03-18T08:30:02.148Z,32.23
2019-03-18T08:32:32.906Z,32.98
2019-03-18T08:35:03.754Z,32.73
2019-03-18T08:37:34.284Z,35.50
2019-03-18T08:40:07.733Z,37.40
2019-03-18T08:42:38.148Z,36.90
2019-03-18T08:45:10.625Z,35.28
2019-03-18T08:47:41.106Z,35.75
2019-03-18T08:50:12.868Z,30.82
2019-03-18T08:52:43.641Z,32.00
2019-03-18T08:55:14.593Z,28.55
2019-03-18T08:57:45.330Z,27.80
2019-03-18T09:00:16.916Z,30.92
2019-03-18T09:02:47.365Z,28.62
2019-03-18T09:05:18.120Z,23.75
2019-03-18T09:07:48.785Z,21.87
2019-03-18T09:10:19.627Z,19.62
2019-03-18T09:15:20.097Z,15.90
2019-03-18T09:17:50.967Z,13.80
2019-03-18T09:20:21.720Z,13.83
2019-03-18T09:22:52.370Z,9.85
2019-03-18T09:25:23.229Z,11.35
2019-03-18T09:27:54.082Z,7.42
2019-03-18T09:30:24.841Z,10.18
2019-03-18T09:32:55.474Z,10.78
2019-03-18T09:35:26.347Z,12.20
2019-03-18T09:37:57.100Z,8.23
2019-03-18T09:40:29.382Z,8.48
2019-03-18T09:43:00.142Z,9.38
2019-03-18T09:45:31.001Z,10.18
2019-03-18T09:48:01.754Z,8.50
2019-03-18T09:50:33.528Z,11.40
2019-03-18T09:53:04.183Z,9.98
2019-03-18T09:55:35.022Z,10.43
2019-03-18T09:58:05.890Z,9.63
2019-03-18T10:00:36.645Z,9.15
2019-03-18T10:03:07.298Z,9.23
2019-03-18T10:05:39.686Z,8.25
2019-03-18T10:08:10.766Z,7.97
2019-03-18T10:10:41.384Z,8.63
2019-03-18T10:13:12.256Z,9.68
2019-03-18T10:15:43.115Z,15.72
2019-03-18T10:18:13.867Z,10.88
2019-03-18T10:20:44.399Z,11.60
2019-03-18T10:23:15.275Z,7.45
2019-03-18T10:25:46.028Z,8.05
2019-03-18T10:28:16.780Z,9.03
2019-03-18T10:30:47.528Z,11.70
2019-03-18T10:33:17.870Z,10.25
2019-03-18T10:35:48.617Z,11.30
2019-03-18T10:38:19.393Z,9.30
2019-03-18T10:40:50.145Z,9.50
2019-03-18T10:43:20.790Z,9.83
2019-03-18T10:45:51.647Z,9.20
2019-03-18T10:48:22.384Z,10.25
2019-03-18T10:50:54.076Z,8.48
2019-03-18T10:53:24.850Z,8.28
2019-03-18T10:56:06.963Z,8.25
2019-03-18T10:58:27.750Z,8.40
2019-03-18T11:00:58.515Z,10.85
2019-03-18T11:03:29.277Z,8.05
2019-03-18T11:05:59.932Z,23.07
2019-03-18T11:08:30.787Z,160.57
2019-03-18T11:11:01.540Z,77.20
2019-03-18T11:13:32.293Z,107.63
2019-03-18T11:16:02.947Z,32.25
2019-03-18T11:18:33.784Z,19.87
2019-03-18T11:21:04.556Z,19.70
2019-03-18T11:23:35.308Z,18.32
2019-03-18T11:26:06.165Z,10.23
2019-03-18T11:28:37.325Z,9.80
2019-03-18T11:31:07.676Z,8.30
2019-03-18T11:33:38.327Z,5.75
2019-03-18T11:36:09.177Z,5.03
2019-03-18T11:38:40.035Z,5.83
2019-03-18T11:43:40.212Z,4.63
2019-03-18T11:46:11.068Z,6.53
2019-03-18T11:48:41.824Z,8.18
2019-03-18T11:51:13.377Z,11.60
2019-03-18T11:53:44.150Z,8.58
2019-03-18T11:56:14.785Z,8.33
2019-03-18T11:58:45.655Z,7.42
2019-03-18T12:01:16.409Z,9.80
2019-03-18T12:03:47.163Z,7.28
2019-03-18T12:06:17.900Z,9.18
2019-03-18T12:08:48.775Z,9.60
2019-03-18T12:11:19.409Z,8.05
2019-03-18T12:13:50.280Z,8.35
2019-03-18T12:16:20.814Z,8.90
2019-03-18T12:18:51.687Z,7.22
2019-03-18T12:21:22.440Z,7.25
2019-03-18T12:23:53.200Z,5.33
2019-03-18T12:26:23.726Z,7.53
2019-03-18T12:28:54.482Z,6.50
2019-03-18T12:31:25.239Z,6.55
2019-03-18T12:33:57.445Z,6.85
2019-03-18T12:36:28.498Z,6.92
2019-03-18T12:38:59.236Z,7.95
2019-03-18T12:41:30.726Z,8.95
2019-03-18T12:44:01.577Z,8.05
2019-03-18T12:46:32.211Z,6.62
2019-03-18T12:49:02.760Z,8.53
2019-03-18T12:54:04.390Z,10.43
2019-03-18T12:56:35.124Z,8.63
2019-03-18T12:59:05.779Z,6.95
2019-03-18T13:01:36.530Z,7.65
2019-03-18T13:04:07.302Z,8.73
2019-03-18T13:06:38.056Z,10.78
2019-03-18T13:09:08.690Z,9.53
2019-03-18T13:11:39.568Z,8.25
2019-03-18T13:14:10.421Z,8.98
2019-03-18T13:16:41.054Z,8.60
2019-03-18T13:19:11.709Z,26.15
2019-03-18T13:21:42.462Z,15.18
2019-03-18T13:24:13.338Z,21.42
2019-03-18T13:26:43.970Z,17.35
2019-03-18T13:29:14.619Z,10.03
2019-03-18T13:31:45.377Z,11.33
2019-03-18T13:34:16.247Z,9.50
2019-03-18T13:36:47.003Z,30.15
2019-03-18T13:39:17.670Z,23.20
2019-03-18T13:41:48.510Z,13.28
2019-03-18T13:44:19.246Z,25.10
2019-03-18T13:46:50.018Z,17.77
2019-03-18T13:49:20.670Z,12.88
2019-03-18T13:51:52.427Z,14.03
2019-03-18T13:54:23.304Z,17.23
2019-03-18T13:56:54.141Z,19.17
2019-03-18T13:59:24.794Z,20.10
2019-03-18T14:01:55.669Z,57.50
2019-03-18T14:04:26.435Z,26.37
2019-03-18T14:06:57.380Z,23.45
2019-03-18T14:09:28.134Z,30.15
2019-03-18T14:11:58.765Z,29.52
2019-03-18T14:14:29.645Z,22.80
2019-03-18T14:17:00.477Z,37.10
2019-03-18T14:19:31.130Z,29.00
2019-03-18T14:22:01.907Z,39.78
2019-03-18T14:24:32.643Z,21.85
2019-03-18T14:27:03.391Z,13.88
2019-03-18T14:29:34.165Z,18.50
2019-03-18T14:32:04.815Z,27.00
2019-03-18T14:34:35.550Z,20.00
2019-03-18T14:37:06.304Z,12.55
2019-03-18T14:39:37.061Z,13.60
2019-03-18T14:42:07.735Z,10.45
2019-03-18T14:44:38.484Z,22.73
2019-03-18T14:47:09.236Z,25.97
2019-03-18T14:49:39.874Z,23.90
2019-03-18T14:52:11.646Z,39.90
2019-03-18T14:54:42.110Z,26.27
2019-03-18T14:57:12.869Z,15.80
2019-03-18T14:59:43.722Z,14.68
2019-03-18T15:02:14.475Z,15.48
2019-03-18T15:04:45.227Z,26.15
2019-03-18T15:07:15.982Z,22.20
2019-03-18T15:09:46.837Z,17.95
2019-03-18T15:12:17.575Z,25.15
2019-03-18T15:14:48.185Z,17.85
2019-03-18T15:17:18.995Z,19.25
2019-03-18T15:19:49.854Z,22.82
2019-03-18T15:22:20.593Z,23.35
2019-03-18T15:24:51.361Z,28.87
2019-03-18T15:27:22.216Z,22.15
2019-03-18T15:29:52.971Z,23.15
2019-03-18T15:32:23.728Z,24.20
2019-03-18T15:34:54.581Z,20.27
2019-03-18T15:37:25.417Z,13.83
2019-03-18T15:39:56.192Z,26.57
2019-03-18T15:42:26.826Z,22.55
2019-03-18T15:44:57.699Z,24.32
2019-03-18T15:47:28.454Z,24.90
2019-03-18T15:49:59.208Z,26.05
2019-03-18T15:52:30.985Z,27.75
2019-03-18T15:55:01.636Z,28.15
2019-03-18T15:57:32.695Z,51.70
2019-03-18T16:00:04.043Z,46.40
2019-03-18T16:02:34.616Z,31.65
2019-03-18T16:05:06.468Z,31.10
2019-03-18T16:07:36.922Z,21.50
2019-03-18T16:10:15.464Z,24.52
2019-03-18T16:12:45.789Z,39.03
2019-03-18T16:15:17.196Z,46.58
2019-03-18T16:17:47.622Z,37.13
2019-03-18T16:20:26.053Z,51.98
2019-03-18T16:22:56.477Z,66.87
2019-03-18T16:25:27.128Z,84.17
2019-03-18T16:27:58.396Z,57.20
2019-03-18T16:30:29.049Z,63.17
2019-03-18T16:35:29.753Z,66.55
2019-03-18T16:38:00.403Z,50.65
2019-03-18T16:40:31.143Z,54.40
2019-03-18T16:43:02.014Z,56.10
2019-03-18T16:45:32.766Z,54.30
2019-03-18T16:48:03.421Z,57.67
2019-03-18T16:50:34.275Z,52.05
2019-03-18T16:53:06.160Z,57.78
2019-03-18T16:55:36.790Z,43.15
2019-03-18T16:58:07.768Z,41.83
2019-03-18T17:00:38.621Z,40.98
2019-03-18T17:03:09.477Z,42.60
2019-03-18T17:05:40.231Z,43.13
2019-03-18T17:08:10.883Z,40.05
2019-03-18T17:10:41.737Z,28.35
2019-03-18T17:13:12.495Z,30.97
2019-03-18T17:15:43.246Z,33.53
2019-03-18T17:18:13.984Z,32.05
2019-03-18T17:20:44.736Z,32.48
2019-03-18T17:23:15.584Z,29.50
2019-03-18T17:25:46.347Z,26.25
2019-03-18T17:28:17.222Z,30.12
2019-03-18T17:30:47.870Z,26.90
2019-03-18T17:33:18.625Z,31.12
2019-03-18T17:35:49.160Z,29.55
2019-03-18T17:38:20.032Z,28.75
2019-03-18T17:40:50.784Z,28.12
2019-03-18T17:43:21.435Z,31.75
2019-03-18T17:45:52.089Z,28.07
2019-03-18T17:48:22.945Z,30.12
2019-03-18T17:50:53.699Z,31.37
2019-03-18T17:53:24.558Z,34.43
2019-03-18T17:55:55.293Z,25.77
2019-03-18T17:58:26.166Z,31.52
2019-03-18T18:00:58.457Z,29.40
2019-03-18T18:03:29.109Z,32.55
2019-03-18T18:05:59.961Z,29.25
2019-03-18T18:08:30.713Z,32.03
2019-03-18T18:11:02.165Z,29.23
2019-03-18T18:13:33.239Z,32.85
2019-03-18T18:16:05.001Z,40.67
2019-03-18T18:18:35.754Z,47.60
2019-03-18T18:21:06.509Z,44.90
2019-03-18T18:23:37.384Z,43.75
2019-03-18T18:26:08.040Z,40.65
2019-03-18T18:31:08.212Z,38.17
2019-03-18T18:33:39.003Z,37.98
2019-03-18T18:36:09.719Z,29.52
2019-03-18T18:38:40.884Z,41.70
2019-03-18T18:41:11.643Z,44.58
2019-03-18T18:43:42.287Z,52.70
2019-03-18T18:46:13.207Z,64.05
2019-03-18T18:48:44.006Z,48.00
2019-03-18T18:51:14.746Z,38.00
2019-03-18T18:53:45.509Z,38.83
2019-03-18T18:56:16.369Z,37.60
2019-03-18T18:58:47.221Z,42.17
2019-03-18T19:01:17.874Z,43.85
2019-03-18T19:03:48.729Z,34.53
2019-03-18T19:06:19.482Z,34.53
2019-03-18T19:08:50.220Z,34.18
2019-03-18T19:11:20.776Z,31.45
2019-03-18T19:13:51.642Z,29.37
2019-03-18T19:16:22.496Z,32.40
2019-03-18T19:18:53.355Z,31.68
2019-03-18T19:21:24.089Z,25.88
2019-03-18T19:23:54.964Z,27.07
2019-03-18T19:26:25.597Z,34.70
2019-03-18T19:28:57.186Z,25.82
2019-03-18T19:31:27.940Z,29.27
2019-03-18T19:33:58.591Z,30.95
2019-03-18T19:36:29.448Z,32.42
2019-03-18T19:39:00.206Z,29.77
2019-03-18T19:41:32.626Z,27.17
2019-03-18T19:44:03.450Z,28.42
2019-03-18T19:46:34.305Z,26.97
2019-03-18T19:49:05.163Z,28.00
2019-03-18T19:51:37.333Z,29.37
2019-03-18T19:54:08.101Z,27.50
2019-03-18T19:56:38.737Z,26.05
2019-03-18T19:59:09.514Z,29.12
2019-03-18T20:01:40.264Z,25.75
2019-03-18T20:04:10.912Z,26.00
2019-03-18T20:06:41.650Z,29.42
2019-03-18T20:09:12.534Z,27.20
2019-03-18T20:11:43.275Z,32.03
2019-03-18T20:14:14.011Z,28.60
2019-03-18T20:16:44.764Z,26.73
2019-03-18T20:19:15.534Z,26.75
2019-03-18T20:21:46.195Z,26.73
2019-03-18T20:24:17.043Z,25.10
2019-03-18T20:26:47.904Z,25.43
2019-03-18T20:29:18.653Z,32.00
2019-03-18T20:31:49.305Z,27.22
2019-03-18T20:34:21.465Z,32.63
2019-03-18T20:36:52.125Z,30.92
2019-03-18T20:39:22.900Z,27.27
2019-03-18T20:41:53.539Z,30.52
2019-03-18T21:58:03.929Z,21.42
2019-03-18T22:00:34.679Z,24.87
2019-03-18T22:03:05.534Z,20.85
2019-03-18T22:05:36.290Z,24.02
2019-03-18T22:08:07.042Z,20.48
2019-03-18T22:10:37.898Z,19.42
2019-03-18T22:13:08.640Z,25.52
2019-03-18T22:15:39.406Z,20.72
2019-03-18T22:18:10.042Z,22.98
2019-03-18T22:20:40.915Z,22.93
2019-03-18T22:23:11.770Z,20.10
2019-03-18T22:25:42.406Z,20.50
2019-03-18T22:30:42.992Z,23.98
2019-03-18T22:33:13.643Z,22.42
2019-03-18T22:35:44.519Z,21.07
2019-03-18T22:38:15.254Z,22.87
2019-03-18T22:40:45.903Z,19.50
2019-03-18T22:45:46.493Z,22.65
2019-03-18T22:48:17.264Z,24.15
2019-03-18T22:50:48.118Z,32.15
2019-03-18T22:53:18.973Z,26.45
2019-03-18T22:55:49.834Z,21.33
2019-03-18T22:58:20.690Z,21.73
2019-03-18T23:00:53.078Z,19.00
2019-03-18T23:03:23.711Z,20.80
2019-03-18T23:08:23.994Z,26.10
2019-03-18T23:10:54.761Z,27.73
2019-03-18T23:13:25.401Z,26.20
2019-03-18T23:15:56.152Z,22.32
2019-03-18T23:18:27.027Z,20.43
2019-03-18T23:20:57.779Z,27.93
2019-03-18T23:23:28.430Z,31.52
2019-03-18T23:25:59.166Z,32.55
2019-03-18T23:28:29.937Z,28.27
2019-03-18T23:31:00.574Z,32.30
2019-03-18T23:36:01.280Z,30.10
2019-03-18T23:38:31.930Z,32.28
2019-03-18T23:41:02.790Z,28.92
2019-03-18T23:43:33.539Z,34.63
2019-03-18T23:46:04.297Z,34.27
2019-03-18T23:48:34.947Z,34.05
2019-03-18T23:51:05.807Z,32.35
2019-03-18T23:53:36.555Z,33.00
2019-03-18T23:56:08.230Z,35.63
2019-03-18T23:58:38.982Z,40.12
